KACB

Details ICAO KACB
Name ANTRIM CO
Region United States
Timezone America/Detroit (UTC-4.0)
Plans Departing 2
Arriving 3
Stats Elevation 623 ft / 190 m (AMSL)
Location 44.988576° -85.198356°
Runways 1
Magnetic Variation 6.482° W
Sunrise 2018-05-25 10:03:33 UTC / 2018-05-25 06:03:33 Local
Sunset 2018-05-26 01:14:50 UTC / 2018-05-25 21:14:50 Local
Advertisement - Login to hide

Runways

ID Width Length Bearing (true) Bearing (mag) Surface Threshold Offset Overrun Length
02 100 ft / 30 m 5,003 ft / 1,525 m 17.37° 23.85° Asphalt 0 ft / 0 m 0 ft / 0 m
20 100 ft / 30 m 5,003 ft / 1,525 m 197.38° 203.86° Asphalt 0 ft / 0 m 0 ft / 0 m

Map

Weather


0- 5 10 15 20 25 30 35+ Temperature / ° C

Clouds and Precipitation
Forecast for 2018-05-25 12:00 UTC. Updated 2 hours ago

Ground ~20,000 ft ~40,000 ft Winds

METAR

KACB 251315Z AUTO 19003KT 10SM CLR 22/13 A2987 RMK AO2 T02160129

TAF

Not found

Frequencies

Recorded 119.27 MHz AWOS 3
Unicom 122.70 MHz CTAF/UNICOM
Warning: Do not use this data for real-world aviation or navigation. No guarantee of current accuracy is given.